Time;durP1;ratioP1;P1;durP2;ratioP2;P2;SDS_P1;SDS_P2;PMS_P1;PMS_P2;Temp;Humidity;BMP_temperature;BMP_pressure;BME280_temperature;BME280_humidity;BME280_pressure;Samples;Min_cycle;Max_cycle;Signal;HPM_P1;HPM_P2
2021/11/30 00:01:41;;;;;;;;;;;;;;;9.51;100.00;98412.66;5080317;28;20367;-82
2021/11/30 00:04:08;;;;;;;;;;;;;;;9.65;100.00;98437.44;5095865;28;19931;-82
2021/11/30 00:06:36;;;;;;;;;;;;;;;9.68;100.00;98422.63;5063284;28;19925;-82
2021/11/30 00:09:21;;;;;;;;;;;;;;;9.60;100.00;98427.59;5046345;28;19978;-82
2021/11/30 00:11:49;;;;;;;;;;;;;;;9.55;100.00;98418.94;5080356;28;19925;-81
2021/11/30 00:14:17;;;;;;;;;;;;;;;9.48;100.00;98416.31;5062423;28;19931;-82
2021/11/30 00:16:44;;;;;;;;;;;;;;;9.59;100.00;98406.47;5062772;28;19931;-82
2021/11/30 00:19:11;;;;;;;;;;;;;;;9.48;100.00;98396.78;5046605;28;19932;-82
2021/11/30 00:21:38;;;;;;;;;;;;;;;9.63;100.00;98392.47;5062925;28;19925;-81
2021/11/30 00:24:05;;;;;;;;;;;;;;;9.62;100.00;98396.47;5062608;28;20023;-81
2021/11/30 00:26:33;;;;;;;;;;;;;;;9.35;100.00;98359.63;5079742;28;19924;-81
2021/11/30 00:29:01;;;;;;;;;;;;;;;9.65;100.00;98381.66;5056434;28;20388;-82
2021/11/30 00:31:28;;;;;;;;;;;;;;;9.59;100.00;98369.44;5073991;28;19931;-82
2021/11/30 00:33:55;;;;;;;;;;;;;;;9.66;100.00;98380.44;5073969;28;20456;-82
2021/11/30 00:36:22;;;;;;;;;;;;;;;9.76;100.00;98373.81;5072680;28;19947;-82
2021/11/30 00:38:50;;;;;;;;;;;;;;;9.66;100.00;98386.00;5055830;28;20023;-82
2021/11/30 00:41:17;;;;;;;;;;;;;;;9.74;100.00;98381.84;5056233;28;19925;-82
2021/11/30 00:43:44;;;;;;;;;;;;;;;9.68;100.00;98355.69;5056134;28;19925;-82
2021/11/30 00:46:20;;;;;;;;;;;;;;;9.65;100.00;98337.03;5039669;28;19924;-82
2021/11/30 00:48:47;;;;;;;;;;;;;;;9.83;100.00;98379.25;5039290;28;20031;-82
2021/11/30 00:51:17;;;;;;;;;;;;;;;9.83;100.00;98371.63;5073642;28;19924;-82
2021/11/30 00:53:45;;;;;;;;;;;;;;;9.70;100.00;98370.75;5055874;28;19974;-82
2021/11/30 00:56:12;;;;;;;;;;;;;;;9.84;100.00;98386.38;5073728;28;20029;-82
2021/11/30 00:58:39;;;;;;;;;;;;;;;9.75;100.00;98367.47;5073810;28;20033;-82
2021/11/30 01:01:07;;;;;;;;;;;;;;;9.93;100.00;98364.25;5056193;28;19925;-82
2021/11/30 01:08:31;;;;;;;;;;;;;;;9.81;100.00;98360.16;5063539;28;20391;-82
2021/11/30 01:10:59;;;;;;;;;;;;;;;9.92;100.00;98365.47;5052517;28;19925;-82
2021/11/30 01:13:29;;;;;;;;;;;;;;;9.97;100.00;98371.31;5052659;28;19960;-82
2021/11/30 01:15:56;;;;;;;;;;;;;;;9.96;100.00;98360.56;5053490;28;19960;-82
2021/11/30 01:18:23;;;;;;;;;;;;;;;10.03;100.00;98365.97;5069347;28;19932;-81
2021/11/30 01:20:52;;;;;;;;;;;;;;;10.23;100.00;98366.69;5068879;28;19960;-81
2021/11/30 01:23:20;;;;;;;;;;;;;;;10.09;100.00;98375.41;5052142;28;20430;-82
2021/11/30 01:25:47;;;;;;;;;;;;;;;10.20;100.00;98350.81;5054378;28;19925;-82
2021/11/30 01:28:14;;;;;;;;;;;;;;;10.04;100.00;98350.81;5039567;28;19983;-82
2021/11/30 01:30:41;;;;;;;;;;;;;;;10.11;100.00;98345.06;5072773;28;19932;-82
2021/11/30 01:33:08;;;;;;;;;;;;;;;10.17;100.00;98343.31;5039485;28;19951;-82
2021/11/30 01:35:35;;;;;;;;;;;;;;;10.16;100.00;98376.03;5039102;28;20299;-82
2021/11/30 01:38:03;;;;;;;;;;;;;;;10.34;100.00;98376.38;5055481;28;20295;-82
2021/11/30 01:40:31;;;;;;;;;;;;;;;10.25;100.00;98386.59;5055954;28;19924;-82
2021/11/30 01:43:00;;;;;;;;;;;;;;;10.25;100.00;98378.97;5039262;28;20024;-82
2021/11/30 01:45:42;;;;;;;;;;;;;;;10.14;100.00;98345.00;5056977;28;19924;-82
2021/11/30 01:49:12;;;;;;;;;;;;;;;10.46;100.00;98372.88;5055803;28;19978;-82
2021/11/30 01:50:58;;;;;;;;;;;;;;;10.24;100.00;98343.13;5038616;28;19936;-81
2021/11/30 01:53:25;;;;;;;;;;;;;;;10.32;100.00;98350.09;5055746;28;19924;-82
2021/11/30 01:55:53;;;;;;;;;;;;;;;10.19;100.00;98357.63;5055676;28;19924;-81
2021/11/30 01:58:21;;;;;;;;;;;;;;;10.19;100.00;98341.66;5055841;28;19974;-80
2021/11/30 02:00:49;;;;;;;;;;;;;;;10.26;100.00;98335.09;5039265;28;19925;-80
2021/11/30 02:03:19;;;;;;;;;;;;;;;10.29;100.00;98334.22;5056097;28;19979;-80
2021/11/30 02:05:46;;;;;;;;;;;;;;;10.16;100.00;98320.19;5055288;28;20016;-81
2021/11/30 02:08:13;;;;;;;;;;;;;;;10.19;100.00;98327.69;5039072;28;19925;-80
2021/11/30 02:10:41;;;;;;;;;;;;;;;10.25;100.00;98339.13;5056616;28;19925;-81
2021/11/30 02:13:08;;;;;;;;;;;;;;;10.26;100.00;98318.34;5038716;28;20011;-81
2021/11/30 02:15:40;;;;;;;;;;;;;;;10.28;100.00;98366.19;5055222;28;20380;-81
2021/11/30 02:18:12;;;;;;;;;;;;;;;10.44;100.00;98380.09;5055261;28;20442;-81
2021/11/30 02:20:41;;;;;;;;;;;;;;;10.41;100.00;98369.81;5056475;28;19924;-81
2021/11/30 02:23:16;;;;;;;;;;;;;;;10.36;100.00;98357.16;5055352;28;19980;-81
2021/11/30 02:25:43;;;;;;;;;;;;;;;10.41;100.00;98361.44;5055116;28;19986;-81
2021/11/30 02:28:10;;;;;;;;;;;;;;;10.34;100.00;98351.25;5038416;28;19925;-81
2021/11/30 02:30:38;;;;;;;;;;;;;;;10.28;100.00;98349.44;5038331;28;20277;-81
2021/11/30 02:33:05;;;;;;;;;;;;;;;10.36;100.00;98359.19;5054910;28;20299;-81
2021/11/30 02:35:32;;;;;;;;;;;;;;;10.36;100.00;98362.75;5055459;28;20387;-81
2021/11/30 02:37:59;;;;;;;;;;;;;;;10.27;100.00;98365.38;5055996;28;19932;-81
2021/11/30 02:40:27;;;;;;;;;;;;;;;10.26;100.00;98352.66;5054693;28;20277;-81
2021/11/30 02:42:54;;;;;;;;;;;;;;;10.33;100.00;98382.41;5054770;28;20346;-81
2021/11/30 02:45:21;;;;;;;;;;;;;;;10.39;100.00;98375.06;5055848;28;20351;-81
2021/11/30 02:47:48;;;;;;;;;;;;;;;10.48;100.00;98386.41;5054563;28;19932;-81
2021/11/30 02:50:15;;;;;;;;;;;;;;;10.40;100.00;98388.59;5054719;28;20372;-81
2021/11/30 02:52:42;;;;;;;;;;;;;;;10.66;100.00;98400.69;5037860;28;19961;-81
2021/11/30 02:55:09;;;;;;;;;;;;;;;10.45;100.00;98409.63;5038035;28;20354;-81
2021/11/30 02:57:36;;;;;;;;;;;;;;;10.77;100.00;98415.13;5037898;28;19932;-81
2021/11/30 03:00:06;;;;;;;;;;;;;;;10.84;100.00;98398.94;5054266;28;20399;-81
2021/11/30 03:02:35;;;;;;;;;;;;;;;10.85;100.00;98410.94;5055913;28;19936;-81
2021/11/30 03:05:03;;;;;;;;;;;;;;;10.81;100.00;98405.41;5054133;28;20326;-81
2021/11/30 03:07:36;;;;;;;;;;;;;;;10.96;100.00;98405.84;5054068;28;20367;-81
2021/11/30 03:10:17;;;;;;;;;;;;;;;10.58;100.00;98408.47;5070869;28;19978;-81
2021/11/30 03:12:45;;;;;;;;;;;;;;;10.86;100.00;98401.31;5071092;28;20433;-81
2021/11/30 03:15:17;;;;;;;;;;;;;;;10.97;100.00;98407.41;5055209;28;20012;-82
2021/11/30 03:17:45;;;;;;;;;;;;;;;10.81;100.00;98413.03;5041519;28;20429;-82
2021/11/30 03:20:13;;;;;;;;;;;;;;;10.86;100.00;98413.28;5020622;28;20287;-81
2021/11/30 03:22:40;;;;;;;;;;;;;;;11.07;100.00;98417.50;5037642;28;20380;-81
2021/11/30 03:25:08;;;;;;;;;;;;;;;10.67;100.00;98403.03;5055093;28;19931;-81
2021/11/30 03:27:35;;;;;;;;;;;;;;;10.77;100.00;98410.34;5037236;28;19931;-81
2021/11/30 03:30:04;;;;;;;;;;;;;;;11.10;100.00;98422.22;5055475;28;19925;-81
2021/11/30 03:35:01;;;;;;;;;;;;;;;11.23;100.00;98423.03;5053125;28;19925;-81
2021/11/30 03:37:28;;;;;;;;;;;;;;;11.17;100.00;98415.63;5055185;28;19924;-81
2021/11/30 03:39:57;;;;;;;;;;;;;;;11.13;100.00;98410.16;5053565;28;19991;-82
2021/11/30 03:42:24;;;;;;;;;;;;;;;11.11;100.00;98401.41;5037076;28;20360;-82
2021/11/30 03:44:53;;;;;;;;;;;;;;;10.91;100.00;98392.38;5036890;28;20354;-82
2021/11/30 03:47:22;;;;;;;;;;;;;;;11.16;100.00;98409.25;5036315;28;19924;-82
2021/11/30 03:49:49;;;;;;;;;;;;;;;10.88;100.00;98396.06;5036723;28;19924;-81
2021/11/30 03:52:16;;;;;;;;;;;;;;;11.11;100.00;98392.22;5054511;28;19925;-81
2021/11/30 03:54:43;;;;;;;;;;;;;;;10.92;100.00;98355.63;5036785;28;19925;-81
2021/11/30 03:57:10;;;;;;;;;;;;;;;11.16;100.00;98347.75;5036914;28;19925;-81
2021/11/30 03:59:38;;;;;;;;;;;;;;;10.86;100.00;98364.97;5069821;28;19925;-81
2021/11/30 04:02:05;;;;;;;;;;;;;;;10.66;100.00;98337.19;5036560;28;19928;-82
2021/11/30 04:04:35;;;;;;;;;;;;;;;10.85;100.00;98349.44;5054366;28;19932;-81
2021/11/30 04:07:03;;;;;;;;;;;;;;;11.01;100.00;98343.81;5053249;28;19931;-81
2021/11/30 04:09:30;;;;;;;;;;;;;;;10.96;100.00;98369.50;5054283;28;19925;-81
2021/11/30 04:11:57;;;;;;;;;;;;;;;10.76;100.00;98326.94;5036288;28;19931;-81
2021/11/30 04:14:25;;;;;;;;;;;;;;;10.95;100.00;98365.13;5054181;28;19929;-81
2021/11/30 04:16:52;;;;;;;;;;;;;;;10.93;100.00;98350.81;5036331;28;20023;-81
2021/11/30 04:19:23;;;;;;;;;;;;;;;10.95;100.00;98376.28;5054430;28;19931;-81
2021/11/30 04:21:50;;;;;;;;;;;;;;;11.09;100.00;98353.53;5054617;28;20046;-81
2021/11/30 04:24:17;;;;;;;;;;;;;;;10.93;100.00;98339.63;5070544;28;19946;-81
2021/11/30 04:26:45;;;;;;;;;;;;;;;11.19;100.00;98341.28;5094184;28;19928;-81
2021/11/30 04:29:12;;;;;;;;;;;;;;;11.05;100.00;98333.28;5091528;28;19965;-81
2021/11/30 04:31:39;;;;;;;;;;;;;;;11.03;100.00;98321.00;5082864;28;19924;-81
2021/11/30 04:34:06;;;;;;;;;;;;;;;11.19;100.00;98332.88;5080928;28;19924;-81
2021/11/30 04:36:33;;;;;;;;;;;;;;;10.94;100.00;98307.66;5073357;28;19930;-81
2021/11/30 04:39:02;;;;;;;;;;;;;;;11.24;100.00;98311.97;5076082;28;19924;-81
2021/11/30 04:41:30;;;;;;;;;;;;;;;11.22;100.00;98320.81;5059398;28;20022;-81
2021/11/30 04:43:57;;;;;;;;;;;;;;;11.01;100.00;98296.28;5092764;28;20372;-81
2021/11/30 04:46:25;;;;;;;;;;;;;;;11.08;100.00;98312.84;5076366;28;19975;-81
2021/11/30 04:49:11;;;;;;;;;;;;;;;11.01;100.00;98318.66;5076135;28;19935;-81
2021/11/30 04:51:38;;;;;;;;;;;;;;;11.12;100.00;98329.50;5059005;28;20407;-81
2021/11/30 04:54:05;;;;;;;;;;;;;;;11.06;100.00;98323.66;5092603;28;19928;-81
2021/11/30 04:56:32;;;;;;;;;;;;;;;10.99;100.00;98330.25;5093959;28;20383;-81
2021/11/30 04:58:59;;;;;;;;;;;;;;;10.95;100.00;98325.97;5076784;28;19931;-81
2021/11/30 05:01:26;;;;;;;;;;;;;;;10.92;100.00;98322.06;5113876;28;19924;-81
2021/11/30 05:03:53;;;;;;;;;;;;;;;10.92;100.00;98321.28;5063467;28;19990;-81
2021/11/30 05:06:20;;;;;;;;;;;;;;;10.96;100.00;98335.97;5113674;28;19924;-81
2021/11/30 05:08:47;;;;;;;;;;;;;;;11.20;100.00;98339.25;5071754;28;19955;-81
2021/11/30 05:11:15;;;;;;;;;;;;;;;11.03;100.00;98341.34;5043338;28;20018;-81
2021/11/30 05:13:42;;;;;;;;;;;;;;;11.23;100.00;98347.53;5059644;28;19968;-81
2021/11/30 05:16:09;;;;;;;;;;;;;;;11.27;100.00;98342.59;5077395;28;19951;-81
2021/11/30 05:18:40;;;;;;;;;;;;;;;11.29;100.00;98334.56;5077480;28;19968;-81
2021/11/30 05:21:07;;;;;;;;;;;;;;;11.16;100.00;98330.97;5076519;28;19970;-81
2021/11/30 05:23:35;;;;;;;;;;;;;;;11.01;100.00;98343.00;5077765;28;19966;-81
2021/11/30 05:26:05;;;;;;;;;;;;;;;10.99;100.00;98349.03;5077568;28;20587;-80
2021/11/30 05:28:34;;;;;;;;;;;;;;;10.93;100.00;98334.06;5059554;28;19929;-81
2021/11/30 05:31:05;;;;;;;;;;;;;;;11.06;100.00;98342.47;5059700;28;19924;-81
2021/11/30 05:33:34;;;;;;;;;;;;;;;11.09;100.00;98349.97;5059507;28;20019;-80
2021/11/30 05:36:01;;;;;;;;;;;;;;;10.83;100.00;98323.94;5042981;28;19928;-80
2021/11/30 05:38:29;;;;;;;;;;;;;;;10.86;100.00;98351.78;5077223;28;20380;-80
2021/11/30 05:40:56;;;;;;;;;;;;;;;11.22;100.00;98351.56;5059240;28;20275;-80
2021/11/30 05:43:23;;;;;;;;;;;;;;;11.11;100.00;98345.50;5059141;28;19931;-80
2021/11/30 05:45:50;;;;;;;;;;;;;;;11.24;100.00;98332.31;5059252;28;20442;-81
2021/11/30 05:48:18;;;;;;;;;;;;;;;11.15;100.00;98357.34;5077049;28;19924;-81
2021/11/30 05:50:45;;;;;;;;;;;;;;;11.13;100.00;98354.22;5076954;28;19929;-80
2021/11/30 05:53:12;;;;;;;;;;;;;;;10.98;100.00;98331.47;5059500;28;19982;-80
2021/11/30 05:55:39;;;;;;;;;;;;;;;11.08;100.00;98374.34;5059155;28;19931;-81
2021/11/30 05:58:06;;;;;;;;;;;;;;;10.97;100.00;98368.25;5058890;28;20291;-81
2021/11/30 06:00:33;;;;;;;;;;;;;;;11.11;100.00;98407.00;5076750;28;19929;-81
2021/11/30 06:03:05;;;;;;;;;;;;;;;11.03;100.00;98382.50;5042344;28;19925;-80
2021/11/30 06:05:33;;;;;;;;;;;;;;;11.39;100.00;98392.19;5058931;28;19931;-81
2021/11/30 06:08:03;;;;;;;;;;;;;;;11.26;100.00;98391.38;5075371;28;19928;-81
2021/11/30 06:10:30;;;;;;;;;;;;;;;11.22;100.00;98390.72;5058098;28;19924;-80
2021/11/30 06:12:57;;;;;;;;;;;;;;;11.48;100.00;98397.91;5075610;28;20011;-80
2021/11/30 06:15:24;;;;;;;;;;;;;;;11.14;100.00;98388.53;5076497;28;19925;-81
2021/11/30 06:17:52;;;;;;;;;;;;;;;11.35;100.00;98393.50;5076485;28;19928;-81
2021/11/30 06:20:22;;;;;;;;;;;;;;;11.40;100.00;98396.56;5076642;28;20291;-81
2021/11/30 06:22:49;;;;;;;;;;;;;;;11.26;100.00;98393.38;5058775;28;20027;-80
2021/11/30 06:25:16;;;;;;;;;;;;;;;11.22;100.00;98392.72;5058710;28;19935;-81
2021/11/30 06:27:43;;;;;;;;;;;;;;;11.12;100.00;98386.19;5058184;28;19960;-81
2021/11/30 06:30:10;;;;;;;;;;;;;;;11.06;100.00;98371.19;5058525;28;19924;-80
2021/11/30 06:32:37;;;;;;;;;;;;;;;11.12;100.00;98369.41;5076418;28;19925;-80
2021/11/30 06:35:06;;;;;;;;;;;;;;;11.02;100.00;98381.69;5058378;28;20019;-81
2021/11/30 06:37:33;;;;;;;;;;;;;;;10.71;100.00;98338.66;5076127;28;20394;-81
2021/11/30 06:40:00;;;;;;;;;;;;;;;10.94;100.00;98352.38;5058119;28;19970;-81
2021/11/30 06:42:27;;;;;;;;;;;;;;;11.09;100.00;98370.31;5075806;28;19924;-81
2021/11/30 06:44:54;;;;;;;;;;;;;;;10.93;100.00;98329.22;5074942;28;19929;-81
2021/11/30 06:47:21;;;;;;;;;;;;;;;10.98;100.00;98369.06;5058041;28;19974;-80
2021/11/30 06:49:48;;;;;;;;;;;;;;;11.21;100.00;98397.50;5058516;28;20268;-80
2021/11/30 06:52:16;;;;;;;;;;;;;;;11.01;100.00;98391.31;5071422;28;19935;-81
2021/11/30 06:54:44;;;;;;;;;;;;;;;10.83;100.00;98380.63;5055720;28;19924;-80
2021/11/30 06:57:11;;;;;;;;;;;;;;;10.98;100.00;98403.38;5054318;28;19925;-80
2021/11/30 06:59:38;;;;;;;;;;;;;;;11.05;100.00;98397.59;5056030;28;19932;-81
2021/11/30 07:02:07;;;;;;;;;;;;;;;10.95;100.00;98384.69;5054912;28;19928;-80
2021/11/30 07:04:38;;;;;;;;;;;;;;;10.86;100.00;98364.97;5054682;28;19925;-80
2021/11/30 07:07:21;;;;;;;;;;;;;;;11.15;100.00;98393.69;5055584;28;19929;-81
2021/11/30 07:15:06;;;;;;;;;;;;;;;10.94;100.00;98413.88;5037827;28;20385;-80
2021/11/30 07:17:33;;;;;;;;;;;;;;;10.91;100.00;98386.81;5054201;28;19924;-80
2021/11/30 07:20:01;;;;;;;;;;;;;;;10.88;100.00;98396.88;5054330;28;20007;-81
2021/11/30 07:22:29;;;;;;;;;;;;;;;11.08;100.00;98390.31;5053020;28;20288;-81
2021/11/30 07:24:57;;;;;;;;;;;;;;;11.28;100.00;98414.09;5055160;28;19929;-81
2021/11/30 07:27:24;;;;;;;;;;;;;;;11.11;100.00;98417.38;5055170;28;19932;-81
2021/11/30 07:29:51;;;;;;;;;;;;;;;10.96;100.00;98411.44;5053711;28;20325;-81
2021/11/30 07:32:18;;;;;;;;;;;;;;;10.98;100.00;98392.19;5054892;28;20296;-81
2021/11/30 07:34:45;;;;;;;;;;;;;;;10.84;100.00;98393.38;5036965;28;19931;-81
2021/11/30 07:37:12;;;;;;;;;;;;;;;10.99;100.00;98410.53;5041949;28;20311;-81
2021/11/30 07:39:39;;;;;;;;;;;;;;;11.26;100.00;98401.78;5058408;28;19978;-81
2021/11/30 07:42:06;;;;;;;;;;;;;;;11.17;100.00;98413.63;5054711;28;20288;-81
2021/11/30 07:44:34;;;;;;;;;;;;;;;11.00;100.00;98417.69;5053454;28;19931;-81
2021/11/30 07:47:02;;;;;;;;;;;;;;;10.95;100.00;98409.84;5054809;28;19929;-81
2021/11/30 07:49:29;;;;;;;;;;;;;;;11.05;100.00;98408.78;5036604;28;20273;-81
2021/11/30 07:51:56;;;;;;;;;;;;;;;10.80;100.00;98439.41;5006306;28;20305;-81
2021/11/30 07:54:26;;;;;;;;;;;;;;;11.11;100.00;98429.38;5014608;28;19930;-81
2021/11/30 07:56:53;;;;;;;;;;;;;;;10.99;100.00;98435.69;5018532;28;19947;-82
2021/11/30 07:59:20;;;;;;;;;;;;;;;10.96;100.00;98428.19;5033283;28;19925;-78
2021/11/30 08:01:48;;;;;;;;;;;;;;;11.09;100.00;98443.00;5046640;28;19925;-81
2021/11/30 08:04:15;;;;;;;;;;;;;;;10.96;100.00;98444.97;5063767;28;19925;-80
2021/11/30 08:06:42;;;;;;;;;;;;;;;10.94;100.00;98437.03;5034457;28;19932;-81
2021/11/30 08:09:10;;;;;;;;;;;;;;;10.92;100.00;98444.25;5034474;28;20284;-79
2021/11/30 08:11:37;;;;;;;;;;;;;;;11.17;100.00;98438.78;5034439;28;19941;-79
2021/11/30 08:16:30;;;;;;;;;;;;;;;11.01;100.00;98458.41;5091388;28;19958;-77
2021/11/30 08:19:58;;;;;;;;;;;;;;;11.15;100.00;98446.81;5111570;27;19916;-78
2021/11/30 08:22:25;;;;;;;;;;;;;;;11.34;100.00;98465.47;5111498;28;20375;-77
2021/11/30 08:24:52;;;;;;;;;;;;;;;11.11;100.00;98462.13;5111513;28;19931;-77
2021/11/30 08:27:19;;;;;;;;;;;;;;;11.29;100.00;98468.00;5104947;28;19924;-78
2021/11/30 08:29:50;;;;;;;;;;;;;;;11.57;100.00;98479.16;5083354;28;19928;-78
2021/11/30 08:32:22;;;;;;;;;;;;;;;11.33;100.00;98466.69;5089317;28;19930;-79
2021/11/30 08:34:51;;;;;;;;;;;;;;;11.24;100.00;98462.97;5107574;28;19924;-79
2021/11/30 08:37:19;;;;;;;;;;;;;;;11.52;100.00;98465.75;5107658;28;20527;-79
2021/11/30 08:39:49;;;;;;;;;;;;;;;11.49;100.00;98472.22;5075082;28;19925;-79
2021/11/30 08:42:17;;;;;;;;;;;;;;;11.40;100.00;98440.53;5107749;28;19924;-79
2021/11/30 08:44:45;;;;;;;;;;;;;;;11.37;100.00;98449.81;5091749;28;19931;-78
2021/11/30 08:47:13;;;;;;;;;;;;;;;11.38;100.00;98454.94;5102646;28;19924;-79
2021/11/30 08:49:40;;;;;;;;;;;;;;;11.24;100.00;98458.16;5082638;28;20287;-80
2021/11/30 08:52:11;;;;;;;;;;;;;;;11.39;100.00;98464.91;5086813;28;20011;-81
2021/11/30 08:54:39;;;;;;;;;;;;;;;11.49;100.00;98461.03;5103246;28;19989;-80
2021/11/30 08:57:07;;;;;;;;;;;;;;;11.73;100.00;98453.94;5083618;28;19931;-80
2021/11/30 08:59:35;;;;;;;;;;;;;;;11.66;100.00;98444.97;5090011;28;19942;-80
2021/11/30 09:02:02;;;;;;;;;;;;;;;11.68;100.00;98446.09;5110949;28;20370;-84
2021/11/30 09:04:30;;;;;;;;;;;;;;;11.58;100.00;98424.00;5089349;28;19924;-80
2021/11/30 09:06:58;;;;;;;;;;;;;;;11.63;100.00;98427.03;5086279;28;19935;-79
2021/11/30 09:09:25;;;;;;;;;;;;;;;11.51;100.00;98438.22;5069998;28;20012;-79
2021/11/30 09:12:01;;;;;;;;;;;;;;;11.46;100.00;98428.34;5053261;28;19925;-79
2021/11/30 09:14:28;;;;;;;;;;;;;;;11.41;100.00;98414.91;5087199;28;19974;-80
2021/11/30 09:16:55;;;;;;;;;;;;;;;11.57;100.00;98440.00;5087295;28;19948;-80
2021/11/30 09:19:23;;;;;;;;;;;;;;;11.26;100.00;98419.34;5087401;28;20618;-81
2021/11/30 09:21:51;;;;;;;;;;;;;;;11.46;100.00;98441.53;5053321;28;19943;-80
2021/11/30 09:24:18;;;;;;;;;;;;;;;11.45;100.00;98437.94;5106054;27;19932;-80
2021/11/30 09:26:45;;;;;;;;;;;;;;;11.42;100.00;98432.47;5092783;28;19971;-80
2021/11/30 09:29:12;;;;;;;;;;;;;;;11.46;100.00;98425.56;5109191;28;19930;-80
2021/11/30 09:31:40;;;;;;;;;;;;;;;11.39;100.00;98431.34;5114159;28;19934;-79
2021/11/30 09:34:07;;;;;;;;;;;;;;;11.42;100.00;98416.47;5114187;28;19972;-80
2021/11/30 09:36:35;;;;;;;;;;;;;;;11.46;100.00;98422.75;5081157;28;19924;-79
2021/11/30 09:39:05;;;;;;;;;;;;;;;11.33;100.00;98426.75;5061474;28;20019;-81
2021/11/30 09:41:33;;;;;;;;;;;;;;;11.47;100.00;98417.94;5077808;28;20017;-81
2021/11/30 09:44:00;;;;;;;;;;;;;;;11.57;100.00;98416.84;5075492;28;19924;-81
2021/11/30 09:46:27;;;;;;;;;;;;;;;11.49;100.00;98427.47;5094316;28;19924;-81
2021/11/30 09:48:55;;;;;;;;;;;;;;;11.40;100.00;98416.16;5058870;28;20321;-81
2021/11/30 09:51:22;;;;;;;;;;;;;;;11.37;100.00;98431.03;5075336;28;19955;-81
2021/11/30 09:53:49;;;;;;;;;;;;;;;11.36;100.00;98429.44;5075373;28;19973;-81
2021/11/30 09:56:16;;;;;;;;;;;;;;;11.33;100.00;98424.72;5076181;28;19924;-81
2021/11/30 09:58:43;;;;;;;;;;;;;;;11.30;100.00;98447.97;5077098;28;19928;-81
2021/11/30 10:01:12;;;;;;;;;;;;;;;11.20;100.00;98442.69;5077634;28;19963;-81
2021/11/30 10:03:40;;;;;;;;;;;;;;;11.49;100.00;98438.66;5077239;28;19925;-81
2021/11/30 10:06:32;;;;;;;;;;;;;;;11.29;100.00;98435.25;5075357;28;19982;-81
2021/11/30 10:09:00;;;;;;;;;;;;;;;11.27;100.00;98448.09;5076567;28;19924;-81
2021/11/30 10:11:30;;;;;;;;;;;;;;;11.41;100.00;98464.47;5060267;28;19924;-81
2021/11/30 10:14:10;;;;;;;;;;;;;;;11.29;100.00;98440.84;5095279;28;19931;-81
2021/11/30 10:16:37;;;;;;;;;;;;;;;11.36;100.00;98446.22;5076925;28;20393;-81
2021/11/30 10:19:05;;;;;;;;;;;;;;;11.32;100.00;98445.53;5076751;28;19994;-81
2021/11/30 10:21:32;;;;;;;;;;;;;;;11.45;100.00;98432.34;5094969;28;19932;-81
2021/11/30 10:24:04;;;;;;;;;;;;;;;11.53;100.00;98436.53;5060508;28;19999;-81
2021/11/30 10:26:33;;;;;;;;;;;;;;;11.38;100.00;98432.56;5094899;28;19928;-81
2021/11/30 10:29:07;;;;;;;;;;;;;;;11.37;100.00;98419.84;5060390;28;20300;-81
2021/11/30 10:31:35;;;;;;;;;;;;;;;11.72;100.00;98441.16;5076789;28;20422;-81
2021/11/30 10:34:12;;;;;;;;;;;;;;;11.71;100.00;98422.81;5076655;28;19924;-81
2021/11/30 10:36:52;;;;;;;;;;;;;;;11.66;100.00;98428.94;5076595;28;19924;-81
2021/11/30 10:39:21;;;;;;;;;;;;;;;11.78;100.00;98433.81;5093436;28;19924;-81
2021/11/30 10:41:51;;;;;;;;;;;;;;;11.66;100.00;98420.56;5075534;28;20019;-80
2021/11/30 10:44:29;;;;;;;;;;;;;;;11.54;100.00;98421.28;5076725;28;19924;-81
2021/11/30 10:47:09;;;;;;;;;;;;;;;11.52;100.00;98432.16;5076467;28;20493;-80
2021/11/30 10:49:43;;;;;;;;;;;;;;;11.47;100.00;98434.72;5109687;28;19931;-81
2021/11/30 10:52:14;;;;;;;;;;;;;;;11.50;100.00;98412.25;5059895;28;20363;-81
2021/11/30 10:54:41;;;;;;;;;;;;;;;11.49;100.00;98427.47;5094537;28;19924;-81
2021/11/30 10:57:08;;;;;;;;;;;;;;;11.52;100.00;98418.19;5109976;28;20389;-80
2021/11/30 10:59:35;;;;;;;;;;;;;;;11.75;100.00;98405.91;5076040;28;19981;-81
2021/11/30 11:02:02;;;;;;;;;;;;;;;11.69;100.00;98419.66;5093889;28;19928;-80
2021/11/30 11:04:30;;;;;;;;;;;;;;;11.80;100.00;98413.78;5076084;28;19931;-80
2021/11/30 11:07:04;;;;;;;;;;;;;;;11.96;100.00;98403.25;5094156;28;20019;-81
2021/11/30 11:09:43;;;;;;;;;;;;;;;11.81;100.00;98404.13;5094032;28;19928;-80
2021/11/30 11:12:11;;;;;;;;;;;;;;;11.72;100.00;98412.41;5094182;28;19931;-81
2021/11/30 11:14:46;;;;;;;;;;;;;;;11.76;100.00;98413.06;5093925;28;20406;-80
2021/11/30 11:17:30;;;;;;;;;;;;;;;11.50;100.00;98417.84;5075997;28;19924;-81
2021/11/30 11:19:58;;;;;;;;;;;;;;;11.76;100.00;98413.06;5075890;28;19924;-81
2021/11/30 11:22:27;;;;;;;;;;;;;;;11.91;100.00;98422.59;5059439;28;19936;-81
2021/11/30 11:24:59;;;;;;;;;;;;;;;11.76;100.00;98402.69;5042404;28;19932;-81
2021/11/30 11:27:36;;;;;;;;;;;;;;;11.63;100.00;98415.09;5093809;28;19967;-81
2021/11/30 11:30:05;;;;;;;;;;;;;;;11.47;100.00;98415.91;5075692;28;19924;-81
2021/11/30 11:32:33;;;;;;;;;;;;;;;11.79;100.00;98418.56;5093458;28;19951;-81
2021/11/30 11:35:02;;;;;;;;;;;;;;;11.66;100.00;98403.78;5075596;28;20446;-81
2021/11/30 11:37:29;;;;;;;;;;;;;;;11.62;100.00;98405.91;5075531;28;19924;-81
2021/11/30 11:39:56;;;;;;;;;;;;;;;11.56;100.00;98399.25;5075446;28;19924;-81
2021/11/30 11:42:23;;;;;;;;;;;;;;;11.48;100.00;98380.34;5075372;28;19924;-81
2021/11/30 11:44:52;;;;;;;;;;;;;;;11.52;100.00;98383.81;5075374;28;20435;-81
2021/11/30 11:47:23;;;;;;;;;;;;;;;11.55;100.00;98383.72;5109194;28;20299;-81
2021/11/30 11:49:51;;;;;;;;;;;;;;;11.27;100.00;98358.63;5075537;28;20375;-81
2021/11/30 11:52:18;;;;;;;;;;;;;;;11.41;100.00;98384.13;5075469;28;19931;-81
2021/11/30 11:54:55;;;;;;;;;;;;;;;11.58;100.00;98393.22;5093170;28;19924;-81
2021/11/30 11:57:23;;;;;;;;;;;;;;;11.49;100.00;98381.91;5093337;28;19924;-81
2021/11/30 11:59:50;;;;;;;;;;;;;;;11.52;100.00;98393.00;5041849;28;19924;-81
2021/11/30 12:02:24;;;;;;;;;;;;;;;11.73;100.00;98403.56;5093556;28;19924;-81
2021/11/30 12:04:51;;;;;;;;;;;;;;;11.33;100.00;98396.75;5075072;28;19924;-81
2021/11/30 12:07:19;;;;;;;;;;;;;;;11.68;100.00;98412.50;5075312;28;19949;-81
2021/11/30 12:09:47;;;;;;;;;;;;;;;11.50;100.00;98378.66;5075190;28;19931;-81
2021/11/30 12:12:13;;;;;;;;;;;;;;;11.72;100.00;98398.41;5091848;28;19931;-81
2021/11/30 12:14:49;;;;;;;;;;;;;;;11.43;100.00;98390.09;5090580;28;19939;-81
2021/11/30 12:17:22;;;;;;;;;;;;;;;11.77;100.00;98397.88;5075369;28;20406;-81
2021/11/30 12:19:53;;;;;;;;;;;;;;;11.83;100.00;98380.06;5092840;28;19924;-81
2021/11/30 12:22:38;;;;;;;;;;;;;;;11.68;100.00;98383.72;5074789;28;20268;-81
2021/11/30 12:25:05;;;;;;;;;;;;;;;11.81;100.00;98371.34;5075028;28;19930;-80
2021/11/30 12:27:36;;;;;;;;;;;;;;;11.82;100.00;98389.69;5058433;28;19947;-81
2021/11/30 12:30:03;;;;;;;;;;;;;;;11.80;100.00;98372.56;5091415;28;19924;-81
2021/11/30 12:32:32;;;;;;;;;;;;;;;11.76;100.00;98377.50;5058398;28;20438;-81
2021/11/30 12:35:06;;;;;;;;;;;;;;;11.54;100.00;98362.53;5092896;28;19932;-80
2021/11/30 12:37:34;;;;;;;;;;;;;;;12.01;100.00;98357.09;5075066;28;20440;-81
2021/11/30 12:40:11;;;;;;;;;;;;;;;11.73;100.00;98350.41;5075170;28;19928;-81
2021/11/30 12:42:38;;;;;;;;;;;;;;;11.66;100.00;98355.44;5092899;28;19924;-81
2021/11/30 12:45:09;;;;;;;;;;;;;;;11.64;100.00;98339.09;5092755;28;20367;-81
2021/11/30 12:47:36;;;;;;;;;;;;;;;11.61;100.00;98317.56;5092840;28;19924;-80
2021/11/30 12:50:27;;;;;;;;;;;;;;;11.63;100.00;98334.72;5074779;28;19924;-81
2021/11/30 12:53:03;;;;;;;;;;;;;;;11.75;100.00;98321.97;5074939;28;19931;-81
2021/11/30 12:55:44;;;;;;;;;;;;;;;12.19;100.00;98315.28;5074738;28;20460;-81
2021/11/30 12:58:46;;;;;;;;;;;;;;;12.23;100.00;98304.75;5074482;28;19924;-81
2021/11/30 13:01:21;;;;;;;;;;;;;;;11.87;100.00;98288.38;5030232;28;19979;-81
2021/11/30 13:03:49;;;;;;;;;;;;;;;12.23;100.00;98285.94;5013767;28;20036;-81